createdAt,value
2023-04-27T00:02:11.413Z,22.2
2023-04-27T00:08:06.195Z,22.1
2023-04-27T00:13:57.907Z,22.1
2023-04-27T00:19:49.236Z,22.1
2023-04-27T00:31:16.618Z,22
2023-04-27T00:37:07.703Z,21.9
2023-04-27T00:42:59.088Z,21.9
2023-04-27T00:48:52.164Z,21.9
2023-04-27T00:54:43.298Z,21.9
2023-04-27T01:00:19.633Z,21.8
2023-04-27T01:06:13.177Z,21.8
2023-04-27T01:12:04.761Z,21.8
2023-04-27T01:17:56.939Z,21.8
2023-04-27T01:23:50.230Z,21.7
2023-04-27T01:29:41.399Z,21.7
2023-04-27T01:35:34.165Z,21.6
2023-04-27T01:41:25.766Z,21.6
2023-04-27T01:47:17.133Z,21.6
2023-04-27T01:53:09.211Z,21.6
2023-04-27T01:59:00.166Z,21.6
2023-04-27T02:04:52.808Z,21.6
2023-04-27T02:10:29.226Z,21.5
2023-04-27T02:16:05.741Z,21.4
2023-04-27T02:21:57.252Z,21.4
2023-04-27T02:27:50.700Z,21.4
2023-04-27T02:33:46.724Z,21.4
2023-04-27T02:39:37.463Z,21.4
2023-04-27T02:51:05.773Z,21.3
2023-04-27T02:56:57.083Z,21.3
2023-04-27T03:02:49.812Z,21.3
2023-04-27T03:08:43.048Z,21.3
2023-04-27T03:14:36.749Z,21.2
2023-04-27T03:20:29.012Z,21.2
2023-04-27T03:43:09.006Z,21.1
2023-04-27T03:49:00.439Z,21.1
2023-04-27T03:54:51.597Z,21
2023-04-27T04:00:43.152Z,21
2023-04-27T04:06:36.962Z,21
2023-04-27T04:12:28.312Z,20.9
2023-04-27T04:18:19.859Z,20.9
2023-04-27T04:24:10.832Z,20.9
2023-04-27T04:30:03.289Z,20.9
2023-04-27T04:35:39.639Z,20.9
2023-04-27T04:41:18.331Z,20.8
2023-04-27T04:46:55.429Z,20.8
2023-04-27T04:52:49.746Z,20.8
2023-04-27T04:58:40.391Z,20.8
2023-04-27T05:04:36.391Z,20.8
2023-04-27T05:10:31.594Z,20.8
2023-04-27T05:16:24.409Z,20.7
2023-04-27T05:27:53.788Z,20.7
2023-04-27T05:33:45.577Z,20.7
2023-04-27T05:39:21.608Z,20.7
2023-04-27T05:44:42.406Z,20.6
2023-04-27T05:50:19.734Z,20.6
2023-04-27T05:55:55.783Z,20.6
2023-04-27T06:01:41.122Z,20.6
2023-04-27T06:07:20.829Z,20.6
2023-04-27T06:12:56.998Z,20.6
2023-04-27T06:18:33.829Z,20.6
2023-04-27T06:24:10.103Z,20.6
2023-04-27T06:30:01.874Z,20.5
2023-04-27T06:35:53.778Z,20.6
2023-04-27T06:41:46.715Z,20.5
2023-04-27T06:47:39.156Z,20.5
2023-04-27T06:53:30.989Z,20.5
2023-04-27T06:59:24.713Z,20.5
2023-04-27T07:05:17.792Z,20.5
2023-04-27T07:11:21.745Z,20.5
2023-04-27T07:17:12.953Z,20.5
2023-04-27T07:23:04.550Z,20.5
2023-04-27T07:28:58.151Z,20.4
2023-04-27T07:35:17.817Z,20.4
2023-04-27T07:41:10.247Z,20.4
2023-04-27T07:47:01.840Z,20.4
2023-04-27T07:52:53.761Z,20.4
2023-04-27T07:58:45.311Z,20.4
2023-04-27T08:04:54.794Z,20.4
2023-04-27T08:10:41.407Z,20.4
2023-04-27T08:16:17.487Z,20.4
2023-04-27T08:21:22.739Z,20.4
2023-04-27T08:26:27.710Z,20.4
2023-04-27T08:32:02.397Z,20.4
2023-04-27T08:37:08.000Z,20.4
2023-04-27T08:42:43.632Z,20.4
2023-04-27T08:48:14.729Z,20.4
2023-04-27T08:53:51.329Z,20.4
2023-04-27T08:59:45.429Z,20.4
2023-04-27T09:05:49.397Z,20.4
2023-04-27T09:11:43.894Z,20.4
2023-04-27T09:17:34.885Z,20.4
2023-04-27T09:22:40.480Z,20.3
2023-04-27T09:28:32.143Z,20.3
2023-04-27T09:34:23.954Z,20.3
2023-04-27T09:40:15.532Z,20.3
2023-04-27T09:46:08.834Z,20.3
2023-04-27T09:51:44.774Z,20.3
2023-04-27T09:57:36.021Z,20.3
2023-04-27T10:03:58.628Z,20.3
2023-04-27T10:09:50.128Z,20.3
2023-04-27T10:15:41.647Z,20.3
2023-04-27T10:21:36.012Z,20.3
2023-04-27T10:27:29.101Z,20.2
2023-04-27T10:33:20.528Z,20.2
2023-04-27T10:39:11.950Z,20.2
2023-04-27T10:45:18.663Z,20.2
2023-04-27T10:51:10.150Z,20.2
2023-04-27T10:56:46.302Z,20.2
2023-04-27T11:02:31.196Z,20.2
2023-04-27T11:08:25.644Z,20.2
2023-04-27T11:14:01.608Z,20.2
2023-04-27T11:19:52.721Z,20.2
2023-04-27T11:25:44.134Z,20.2
2023-04-27T11:31:36.377Z,20.1
2023-04-27T11:37:27.127Z,20.2
2023-04-27T11:42:50.190Z,20.2
2023-04-27T11:48:26.991Z,20.1
2023-04-27T11:53:50.779Z,20.2
2023-04-27T11:59:11.382Z,20.1
2023-04-27T12:04:42.214Z,20.2
2023-04-27T12:10:28.986Z,20.2
2023-04-27T12:15:50.087Z,20.2
2023-04-27T12:21:27.099Z,20.2
2023-04-27T12:27:21.048Z,20.2
2023-04-27T12:32:42.684Z,20.2
2023-04-27T12:38:34.893Z,20.2
2023-04-27T12:44:25.933Z,20.1
2023-04-27T12:50:46.465Z,20.1
2023-04-27T12:56:53.109Z,20.1
2023-04-27T13:02:46.703Z,20.1
2023-04-27T13:08:40.355Z,20.1
2023-04-27T13:14:32.422Z,20.1
2023-04-27T13:20:30.105Z,20.1
2023-04-27T13:26:22.736Z,20.1
2023-04-27T13:32:14.777Z,20.2
2023-04-27T13:38:20.670Z,20.1
2023-04-27T13:44:12.671Z,20.1
2023-04-27T13:49:49.220Z,20.1
2023-04-27T13:55:40.791Z,20.1
2023-04-27T14:01:32.422Z,20.1
2023-04-27T14:07:26.168Z,20.1
2023-04-27T14:13:32.957Z,20.1
2023-04-27T14:19:38.409Z,20.1
2023-04-27T14:25:30.214Z,20.1
2023-04-27T14:31:21.064Z,20.2
2023-04-27T14:37:12.680Z,20.1
2023-04-27T14:43:04.760Z,20.1
2023-04-27T14:49:22.133Z,20.1
2023-04-27T14:55:13.609Z,20.3
2023-04-27T15:01:04.856Z,20.3
2023-04-27T15:06:58.469Z,20.3
2023-04-27T15:12:50.207Z,20.3
2023-04-27T15:18:42.681Z,20.3
2023-04-27T15:24:34.536Z,20.3
2023-04-27T15:30:28.345Z,20.3
2023-04-27T15:36:20.321Z,20.4
2023-04-27T15:42:11.987Z,20.6
2023-04-27T15:47:49.566Z,20.8
2023-04-27T15:53:54.231Z,20.9
2023-04-27T15:59:48.311Z,21.1
2023-04-27T16:05:41.710Z,21.3
2023-04-27T16:11:36.769Z,21.4
2023-04-27T16:17:12.950Z,21.6
2023-04-27T16:23:04.940Z,21.8
2023-04-27T16:28:56.538Z,21.9
2023-04-27T16:34:48.125Z,22.1
2023-04-27T16:40:40.002Z,22.2
2023-04-27T16:46:16.937Z,22.4
2023-04-27T16:52:09.229Z,22.5
2023-04-27T16:57:45.858Z,22.6
2023-04-27T17:03:50.476Z,22.8
2023-04-27T17:09:43.877Z,22.9
2023-04-27T17:15:35.927Z,23
2023-04-27T17:21:31.019Z,23.1
2023-04-27T17:27:22.803Z,23.2
2023-04-27T17:33:16.454Z,23.3
2023-04-27T17:39:11.702Z,23.4
2023-04-27T17:45:03.047Z,23.4
2023-04-27T17:50:55.124Z,23.4
2023-04-27T17:56:47.399Z,23.5
2023-04-27T18:02:09.107Z,23.5
2023-04-27T18:13:10.461Z,23.7
2023-04-27T18:19:05.731Z,23.8
2023-04-27T18:25:11.640Z,23.8
2023-04-27T18:31:05.594Z,23.9
2023-04-27T18:36:58.132Z,24
2023-04-27T18:42:49.758Z,24.1
2023-04-27T18:48:42.105Z,24.1
2023-04-27T18:54:18.631Z,24.2
2023-04-27T19:00:10.959Z,24.3
2023-04-27T19:06:23.835Z,24.3
2023-04-27T19:12:20.100Z,24.4
2023-04-27T19:18:23.527Z,24.4
2023-04-27T19:24:17.946Z,24.4
2023-04-27T19:30:26.507Z,24.5
2023-04-27T19:36:23.450Z,24.5
2023-04-27T19:47:57.483Z,24.6
2023-04-27T19:53:50.768Z,24.6
2023-04-27T19:59:44.030Z,24.6
2023-04-27T20:05:40.966Z,24.5
2023-04-27T20:11:35.519Z,24.4
2023-04-27T20:23:25.150Z,24.4
2023-04-27T20:29:03.520Z,24.3
2023-04-27T20:34:56.413Z,24.3
2023-04-27T20:41:03.595Z,24.2
2023-04-27T20:46:55.716Z,24.1
2023-04-27T20:52:27.955Z,24.1
2023-04-27T20:58:22.723Z,24
2023-04-27T21:04:16.139Z,23.9
2023-04-27T21:10:08.469Z,23.8
2023-04-27T21:16:03.208Z,23.8
2023-04-27T21:22:09.069Z,23.7
2023-04-27T21:28:09.533Z,23.6
2023-04-27T21:34:04.255Z,23.6
2023-04-27T21:39:56.194Z,23.5
2023-04-27T21:45:47.983Z,23.4
2023-04-27T21:57:18.208Z,23.3
2023-04-27T22:03:11.780Z,23.3
2023-04-27T22:14:40.413Z,23.1
2023-04-27T22:20:32.065Z,23.1
2023-04-27T22:26:25.399Z,23
2023-04-27T22:32:29.096Z,22.9
2023-04-27T22:38:28.316Z,22.9
2023-04-27T22:44:19.306Z,22.8
2023-04-27T22:50:10.419Z,22.8
2023-04-27T22:56:01.267Z,22.8
2023-04-27T23:01:52.633Z,22.7
2023-04-27T23:07:45.543Z,22.6
2023-04-27T23:13:37.179Z,22.6
2023-04-27T23:19:28.672Z,22.5
2023-04-27T23:25:27.010Z,22.4
2023-04-27T23:31:18.557Z,22.4
2023-04-27T23:37:10.445Z,22.4
2023-04-27T23:42:45.799Z,22.3
2023-04-27T23:48:22.484Z,22.3
2023-04-27T23:54:13.525Z,22.3
2023-04-27T23:59:50.170Z,22.2
